Terminal Aerodrome Forecast
Issued by NWS Louisville, KY

Home | Current Version | Previous Version | Text Only | Print | Product List | Glossary On
Versions: 1 2 3 4 5 6 7 8 9 10 11 12 13 14 15 16
000
FTUS43 KLMK 270918 AAA
TAFSDF
TAF AMD
KSDF 270918Z 2709/2812 24006KT P6SM FEW025 BKN040
      TEMPO 2709/2712 BKN025
     FM271200 23007KT P6SM SCT012 BKN025
      TEMPO 2714/2716 5SM BR BKN012
     FM271700 24007KT P6SM VCSH SCT025 BKN035
     FM272000 24007KT P6SM VCTS SCT040CB BKN060
     FM280000 VRB05KT P6SM SCT030 BKN250
     FM280600 18006KT P6SM VCTS SCT025CB BKN050=

USA.gov is the U.S. government's official web portal to all federal, state and local government web resources and services.